sensor_id;sensor_type;location;lat;lon;timestamp;P1;durP1;ratioP1;P2;durP2;ratioP2
71298;SDS011;59083;47.974;21.722;2023-03-14T00:00:49;20.60;;;10.05;;
71298;SDS011;59083;47.974;21.722;2023-03-14T00:03:50;21.33;;;10.45;;
71298;SDS011;59083;47.974;21.722;2023-03-14T00:06:51;21.47;;;10.40;;
71298;SDS011;59083;47.974;21.722;2023-03-14T00:09:53;21.73;;;10.33;;
71298;SDS011;59083;47.974;21.722;2023-03-14T00:12:54;21.98;;;10.32;;
71298;SDS011;59083;47.974;21.722;2023-03-14T00:16:00;22.40;;;10.30;;
71298;SDS011;59083;47.974;21.722;2023-03-14T00:19:02;21.77;;;10.75;;
71298;SDS011;59083;47.974;21.722;2023-03-14T00:22:04;17.47;;;9.03;;
71298;SDS011;59083;47.974;21.722;2023-03-14T00:25:05;19.17;;;9.10;;
71298;SDS011;59083;47.974;21.722;2023-03-14T00:28:08;23.08;;;9.85;;
71298;SDS011;59083;47.974;21.722;2023-03-14T00:31:10;22.27;;;9.60;;
71298;SDS011;59083;47.974;21.722;2023-03-14T00:34:14;22.90;;;9.98;;
71298;SDS011;59083;47.974;21.722;2023-03-14T00:37:15;21.97;;;9.63;;
71298;SDS011;59083;47.974;21.722;2023-03-14T00:40:16;26.83;;;10.50;;
71298;SDS011;59083;47.974;21.722;2023-03-14T00:43:18;22.02;;;10.35;;
71298;SDS011;59083;47.974;21.722;2023-03-14T00:46:22;23.38;;;10.32;;
71298;SDS011;59083;47.974;21.722;2023-03-14T00:49:23;21.48;;;10.18;;
71298;SDS011;59083;47.974;21.722;2023-03-14T00:52:25;21.73;;;10.47;;
71298;SDS011;59083;47.974;21.722;2023-03-14T00:55:26;22.67;;;11.23;;
71298;SDS011;59083;47.974;21.722;2023-03-14T00:58:28;19.67;;;9.70;;
71298;SDS011;59083;47.974;21.722;2023-03-14T01:01:29;19.40;;;10.18;;
71298;SDS011;59083;47.974;21.722;2023-03-14T01:04:30;20.55;;;9.98;;
71298;SDS011;59083;47.974;21.722;2023-03-14T01:07:32;21.93;;;9.90;;
71298;SDS011;59083;47.974;21.722;2023-03-14T01:10:34;21.43;;;10.17;;
71298;SDS011;59083;47.974;21.722;2023-03-14T01:13:39;19.58;;;9.90;;
71298;SDS011;59083;47.974;21.722;2023-03-14T01:16:41;17.90;;;9.15;;
71298;SDS011;59083;47.974;21.722;2023-03-14T01:19:42;21.33;;;9.65;;
71298;SDS011;59083;47.974;21.722;2023-03-14T01:22:43;20.20;;;9.67;;
71298;SDS011;59083;47.974;21.722;2023-03-14T01:25:45;20.30;;;9.87;;
71298;SDS011;59083;47.974;21.722;2023-03-14T01:28:47;18.27;;;8.85;;
71298;SDS011;59083;47.974;21.722;2023-03-14T01:31:49;19.45;;;9.52;;
71298;SDS011;59083;47.974;21.722;2023-03-14T01:34:51;19.23;;;8.98;;
71298;SDS011;59083;47.974;21.722;2023-03-14T01:37:53;19.20;;;8.73;;
71298;SDS011;59083;47.974;21.722;2023-03-14T01:40:55;17.43;;;8.97;;
71298;SDS011;59083;47.974;21.722;2023-03-14T01:43:57;18.00;;;8.73;;
71298;SDS011;59083;47.974;21.722;2023-03-14T01:46:59;20.40;;;9.65;;
71298;SDS011;59083;47.974;21.722;2023-03-14T01:50:04;18.77;;;8.60;;
71298;SDS011;59083;47.974;21.722;2023-03-14T01:53:09;20.43;;;9.03;;
71298;SDS011;59083;47.974;21.722;2023-03-14T01:56:11;18.67;;;8.73;;
71298;SDS011;59083;47.974;21.722;2023-03-14T01:59:16;20.80;;;8.95;;
71298;SDS011;59083;47.974;21.722;2023-03-14T02:02:18;19.25;;;9.05;;
71298;SDS011;59083;47.974;21.722;2023-03-14T02:05:21;16.80;;;8.00;;
71298;SDS011;59083;47.974;21.722;2023-03-14T02:08:26;15.97;;;7.90;;
71298;SDS011;59083;47.974;21.722;2023-03-14T02:11:29;20.07;;;8.67;;
71298;SDS011;59083;47.974;21.722;2023-03-14T02:14:32;15.93;;;8.20;;
71298;SDS011;59083;47.974;21.722;2023-03-14T02:17:36;17.67;;;8.35;;
71298;SDS011;59083;47.974;21.722;2023-03-14T02:20:48;16.83;;;7.37;;
71298;SDS011;59083;47.974;21.722;2023-03-14T02:30:20;21.58;;;7.68;;
71298;SDS011;59083;47.974;21.722;2023-03-14T02:33:26;18.83;;;8.40;;
71298;SDS011;59083;47.974;21.722;2023-03-14T02:36:28;17.55;;;7.75;;
71298;SDS011;59083;47.974;21.722;2023-03-14T02:39:33;16.43;;;8.00;;
71298;SDS011;59083;47.974;21.722;2023-03-14T02:42:38;15.47;;;7.63;;
71298;SDS011;59083;47.974;21.722;2023-03-14T02:45:43;17.60;;;7.50;;
71298;SDS011;59083;47.974;21.722;2023-03-14T02:49:05;16.58;;;7.60;;
71298;SDS011;59083;47.974;21.722;2023-03-14T02:52:09;14.27;;;6.60;;
71298;SDS011;59083;47.974;21.722;2023-03-14T02:55:11;18.30;;;8.00;;
71298;SDS011;59083;47.974;21.722;2023-03-14T02:58:14;14.17;;;6.43;;
71298;SDS011;59083;47.974;21.722;2023-03-14T03:01:16;16.40;;;7.07;;
71298;SDS011;59083;47.974;21.722;2023-03-14T03:04:18;15.10;;;6.80;;
71298;SDS011;59083;47.974;21.722;2023-03-14T03:07:20;16.05;;;7.50;;
71298;SDS011;59083;47.974;21.722;2023-03-14T03:10:21;15.83;;;7.10;;
71298;SDS011;59083;47.974;21.722;2023-03-14T03:13:23;15.27;;;7.33;;
71298;SDS011;59083;47.974;21.722;2023-03-14T03:16:24;17.45;;;7.62;;
71298;SDS011;59083;47.974;21.722;2023-03-14T03:19:26;17.00;;;7.07;;
71298;SDS011;59083;47.974;21.722;2023-03-14T03:22:27;14.65;;;7.18;;
71298;SDS011;59083;47.974;21.722;2023-03-14T03:25:28;17.57;;;7.53;;
71298;SDS011;59083;47.974;21.722;2023-03-14T03:28:30;16.30;;;7.03;;
71298;SDS011;59083;47.974;21.722;2023-03-14T03:31:32;17.20;;;7.65;;
71298;SDS011;59083;47.974;21.722;2023-03-14T03:34:34;14.80;;;6.80;;
71298;SDS011;59083;47.974;21.722;2023-03-14T03:37:36;13.62;;;6.97;;
71298;SDS011;59083;47.974;21.722;2023-03-14T03:40:39;15.63;;;7.23;;
71298;SDS011;59083;47.974;21.722;2023-03-14T03:43:42;18.93;;;7.27;;
71298;SDS011;59083;47.974;21.722;2023-03-14T03:46:43;12.65;;;6.68;;
71298;SDS011;59083;47.974;21.722;2023-03-14T03:49:44;14.25;;;6.85;;
71298;SDS011;59083;47.974;21.722;2023-03-14T03:52:46;15.70;;;6.82;;
71298;SDS011;59083;47.974;21.722;2023-03-14T03:55:47;13.30;;;6.40;;
71298;SDS011;59083;47.974;21.722;2023-03-14T03:58:48;14.70;;;6.57;;
71298;SDS011;59083;47.974;21.722;2023-03-14T04:01:49;12.57;;;6.32;;
71298;SDS011;59083;47.974;21.722;2023-03-14T04:04:51;15.52;;;6.87;;
71298;SDS011;59083;47.974;21.722;2023-03-14T04:07:52;19.35;;;7.43;;
71298;SDS011;59083;47.974;21.722;2023-03-14T04:10:55;16.73;;;6.80;;
71298;SDS011;59083;47.974;21.722;2023-03-14T04:14:01;15.90;;;6.20;;
71298;SDS011;59083;47.974;21.722;2023-03-14T04:17:04;15.48;;;7.28;;
71298;SDS011;59083;47.974;21.722;2023-03-14T04:20:05;13.75;;;6.70;;
71298;SDS011;59083;47.974;21.722;2023-03-14T04:23:11;17.17;;;6.47;;
71298;SDS011;59083;47.974;21.722;2023-03-14T04:26:13;14.17;;;6.90;;
71298;SDS011;59083;47.974;21.722;2023-03-14T04:29:15;18.30;;;7.10;;
71298;SDS011;59083;47.974;21.722;2023-03-14T04:32:17;18.58;;;9.13;;
71298;SDS011;59083;47.974;21.722;2023-03-14T04:35:18;14.52;;;6.87;;
71298;SDS011;59083;47.974;21.722;2023-03-14T04:38:20;18.65;;;7.35;;
71298;SDS011;59083;47.974;21.722;2023-03-14T04:41:22;13.77;;;6.83;;
71298;SDS011;59083;47.974;21.722;2023-03-14T04:44:23;15.37;;;7.23;;
71298;SDS011;59083;47.974;21.722;2023-03-14T04:47:26;14.57;;;7.15;;
71298;SDS011;59083;47.974;21.722;2023-03-14T04:50:28;23.10;;;8.68;;
71298;SDS011;59083;47.974;21.722;2023-03-14T04:53:30;14.77;;;7.00;;
71298;SDS011;59083;47.974;21.722;2023-03-14T04:56:32;16.10;;;7.07;;
71298;SDS011;59083;47.974;21.722;2023-03-14T04:59:35;15.40;;;7.13;;
71298;SDS011;59083;47.974;21.722;2023-03-14T05:02:38;15.35;;;6.70;;
71298;SDS011;59083;47.974;21.722;2023-03-14T05:05:40;16.37;;;7.15;;
71298;SDS011;59083;47.974;21.722;2023-03-14T05:08:41;15.73;;;8.10;;
71298;SDS011;59083;47.974;21.722;2023-03-14T05:11:43;15.17;;;7.20;;
71298;SDS011;59083;47.974;21.722;2023-03-14T05:14:45;18.57;;;7.33;;
71298;SDS011;59083;47.974;21.722;2023-03-14T05:17:47;14.40;;;6.78;;
71298;SDS011;59083;47.974;21.722;2023-03-14T05:20:52;21.05;;;8.32;;
71298;SDS011;59083;47.974;21.722;2023-03-14T05:23:54;17.77;;;7.72;;
71298;SDS011;59083;47.974;21.722;2023-03-14T05:26:56;15.07;;;7.43;;
71298;SDS011;59083;47.974;21.722;2023-03-14T05:29:57;16.50;;;7.57;;
71298;SDS011;59083;47.974;21.722;2023-03-14T05:32:59;16.73;;;7.85;;
71298;SDS011;59083;47.974;21.722;2023-03-14T05:36:02;17.40;;;7.43;;
71298;SDS011;59083;47.974;21.722;2023-03-14T05:39:04;14.73;;;7.47;;
71298;SDS011;59083;47.974;21.722;2023-03-14T05:42:06;13.47;;;6.97;;
71298;SDS011;59083;47.974;21.722;2023-03-14T05:45:08;16.20;;;7.07;;
71298;SDS011;59083;47.974;21.722;2023-03-14T05:48:10;15.90;;;7.50;;
71298;SDS011;59083;47.974;21.722;2023-03-14T05:51:12;17.50;;;7.68;;
71298;SDS011;59083;47.974;21.722;2023-03-14T05:54:15;16.90;;;8.13;;
71298;SDS011;59083;47.974;21.722;2023-03-14T05:57:20;16.93;;;7.37;;
71298;SDS011;59083;47.974;21.722;2023-03-14T06:00:26;15.23;;;7.43;;
71298;SDS011;59083;47.974;21.722;2023-03-14T06:03:29;20.52;;;8.57;;
71298;SDS011;59083;47.974;21.722;2023-03-14T06:06:40;19.73;;;8.15;;
71298;SDS011;59083;47.974;21.722;2023-03-14T06:09:53;22.30;;;9.20;;
71298;SDS011;59083;47.974;21.722;2023-03-14T06:12:55;18.00;;;8.80;;
71298;SDS011;59083;47.974;21.722;2023-03-14T06:15:56;18.70;;;8.67;;
71298;SDS011;59083;47.974;21.722;2023-03-14T06:18:57;18.42;;;8.55;;
71298;SDS011;59083;47.974;21.722;2023-03-14T06:21:59;22.20;;;9.10;;
71298;SDS011;59083;47.974;21.722;2023-03-14T06:25:01;19.95;;;8.85;;
71298;SDS011;59083;47.974;21.722;2023-03-14T06:28:02;17.97;;;8.30;;
71298;SDS011;59083;47.974;21.722;2023-03-14T06:31:04;24.33;;;9.00;;
71298;SDS011;59083;47.974;21.722;2023-03-14T06:34:07;19.98;;;8.82;;
71298;SDS011;59083;47.974;21.722;2023-03-14T06:37:08;20.23;;;9.18;;
71298;SDS011;59083;47.974;21.722;2023-03-14T06:40:10;20.10;;;9.45;;
71298;SDS011;59083;47.974;21.722;2023-03-14T06:43:16;18.30;;;9.30;;
71298;SDS011;59083;47.974;21.722;2023-03-14T06:46:18;22.27;;;9.97;;
71298;SDS011;59083;47.974;21.722;2023-03-14T06:49:19;17.58;;;9.05;;
71298;SDS011;59083;47.974;21.722;2023-03-14T06:52:21;19.33;;;9.15;;
71298;SDS011;59083;47.974;21.722;2023-03-14T06:55:22;22.33;;;10.27;;
71298;SDS011;59083;47.974;21.722;2023-03-14T06:58:24;23.47;;;11.13;;
71298;SDS011;59083;47.974;21.722;2023-03-14T07:01:26;23.53;;;11.63;;
71298;SDS011;59083;47.974;21.722;2023-03-14T07:04:30;22.55;;;10.90;;
71298;SDS011;59083;47.974;21.722;2023-03-14T07:07:31;20.12;;;9.55;;
71298;SDS011;59083;47.974;21.722;2023-03-14T07:10:33;21.83;;;10.13;;
71298;SDS011;59083;47.974;21.722;2023-03-14T07:13:34;25.67;;;10.43;;
71298;SDS011;59083;47.974;21.722;2023-03-14T07:16:36;20.20;;;9.77;;
71298;SDS011;59083;47.974;21.722;2023-03-14T07:19:38;25.35;;;11.00;;
71298;SDS011;59083;47.974;21.722;2023-03-14T07:22:40;20.75;;;10.35;;
71298;SDS011;59083;47.974;21.722;2023-03-14T07:25:41;21.30;;;9.95;;
71298;SDS011;59083;47.974;21.722;2023-03-14T07:28:43;19.60;;;9.83;;
71298;SDS011;59083;47.974;21.722;2023-03-14T07:31:46;21.90;;;10.43;;
71298;SDS011;59083;47.974;21.722;2023-03-14T07:34:48;23.52;;;11.52;;
71298;SDS011;59083;47.974;21.722;2023-03-14T07:37:49;24.92;;;11.23;;
71298;SDS011;59083;47.974;21.722;2023-03-14T07:41:01;23.67;;;10.32;;
71298;SDS011;59083;47.974;21.722;2023-03-14T07:44:06;27.63;;;12.27;;
71298;SDS011;59083;47.974;21.722;2023-03-14T07:47:07;25.80;;;11.27;;
71298;SDS011;59083;47.974;21.722;2023-03-14T07:50:08;23.98;;;11.45;;
71298;SDS011;59083;47.974;21.722;2023-03-14T07:53:11;52.08;;;22.80;;
71298;SDS011;59083;47.974;21.722;2023-03-14T07:56:12;30.65;;;14.52;;
71298;SDS011;59083;47.974;21.722;2023-03-14T07:59:14;24.10;;;10.43;;
71298;SDS011;59083;47.974;21.722;2023-03-14T08:02:15;23.83;;;9.97;;
71298;SDS011;59083;47.974;21.722;2023-03-14T08:05:17;17.25;;;7.22;;
71298;SDS011;59083;47.974;21.722;2023-03-14T08:08:18;9.10;;;3.42;;
71298;SDS011;59083;47.974;21.722;2023-03-14T08:11:19;8.73;;;2.72;;
71298;SDS011;59083;47.974;21.722;2023-03-14T08:14:20;11.30;;;3.50;;
71298;SDS011;59083;47.974;21.722;2023-03-14T08:17:24;6.17;;;2.47;;
71298;SDS011;59083;47.974;21.722;2023-03-14T08:20:27;15.80;;;3.45;;
71298;SDS011;59083;47.974;21.722;2023-03-14T08:23:30;8.80;;;2.70;;
71298;SDS011;59083;47.974;21.722;2023-03-14T08:26:31;10.05;;;3.00;;
71298;SDS011;59083;47.974;21.722;2023-03-14T08:29:32;7.83;;;2.70;;
71298;SDS011;59083;47.974;21.722;2023-03-14T08:32:33;6.80;;;2.70;;
71298;SDS011;59083;47.974;21.722;2023-03-14T08:35:35;13.13;;;3.05;;
71298;SDS011;59083;47.974;21.722;2023-03-14T08:38:38;13.68;;;3.12;;
71298;SDS011;59083;47.974;21.722;2023-03-14T08:41:39;10.52;;;3.30;;
71298;SDS011;59083;47.974;21.722;2023-03-14T08:44:43;8.87;;;3.57;;
71298;SDS011;59083;47.974;21.722;2023-03-14T08:47:45;7.90;;;3.40;;
71298;SDS011;59083;47.974;21.722;2023-03-14T08:50:47;8.60;;;3.22;;
71298;SDS011;59083;47.974;21.722;2023-03-14T08:53:49;6.93;;;2.90;;
71298;SDS011;59083;47.974;21.722;2023-03-14T08:56:50;8.88;;;3.03;;
71298;SDS011;59083;47.974;21.722;2023-03-14T08:59:51;13.50;;;3.03;;
71298;SDS011;59083;47.974;21.722;2023-03-14T09:02:52;11.20;;;3.57;;
71298;SDS011;59083;47.974;21.722;2023-03-14T09:05:53;8.70;;;3.12;;
71298;SDS011;59083;47.974;21.722;2023-03-14T09:08:54;12.45;;;3.40;;
71298;SDS011;59083;47.974;21.722;2023-03-14T09:11:56;9.63;;;2.70;;
71298;SDS011;59083;47.974;21.722;2023-03-14T09:14:57;12.98;;;3.15;;
71298;SDS011;59083;47.974;21.722;2023-03-14T09:17:59;12.47;;;2.87;;
71298;SDS011;59083;47.974;21.722;2023-03-14T09:21:00;9.15;;;2.75;;
71298;SDS011;59083;47.974;21.722;2023-03-14T09:24:01;13.77;;;2.95;;
71298;SDS011;59083;47.974;21.722;2023-03-14T09:27:02;13.62;;;4.03;;
71298;SDS011;59083;47.974;21.722;2023-03-14T09:30:04;16.13;;;3.00;;
71298;SDS011;59083;47.974;21.722;2023-03-14T09:33:05;8.67;;;3.00;;
71298;SDS011;59083;47.974;21.722;2023-03-14T09:36:06;15.50;;;3.35;;
71298;SDS011;59083;47.974;21.722;2023-03-14T09:39:08;9.65;;;3.33;;
71298;SDS011;59083;47.974;21.722;2023-03-14T09:42:12;6.53;;;2.95;;
71298;SDS011;59083;47.974;21.722;2023-03-14T09:45:19;9.27;;;2.80;;
71298;SDS011;59083;47.974;21.722;2023-03-14T09:48:27;9.07;;;3.30;;
71298;SDS011;59083;47.974;21.722;2023-03-14T09:51:31;10.27;;;2.97;;
71298;SDS011;59083;47.974;21.722;2023-03-14T09:54:37;14.75;;;3.30;;
71298;SDS011;59083;47.974;21.722;2023-03-14T09:57:43;11.00;;;3.00;;
71298;SDS011;59083;47.974;21.722;2023-03-14T10:00:46;17.67;;;3.00;;
71298;SDS011;59083;47.974;21.722;2023-03-14T10:03:48;13.40;;;3.57;;
71298;SDS011;59083;47.974;21.722;2023-03-14T10:06:51;10.15;;;3.20;;
71298;SDS011;59083;47.974;21.722;2023-03-14T10:09:53;10.57;;;2.95;;
71298;SDS011;59083;47.974;21.722;2023-03-14T10:12:55;9.55;;;3.20;;
71298;SDS011;59083;47.974;21.722;2023-03-14T10:16:01;10.68;;;3.15;;
71298;SDS011;59083;47.974;21.722;2023-03-14T10:19:05;7.13;;;2.50;;
71298;SDS011;59083;47.974;21.722;2023-03-14T10:22:12;11.75;;;2.72;;
71298;SDS011;59083;47.974;21.722;2023-03-14T10:25:24;7.90;;;2.80;;
71298;SDS011;59083;47.974;21.722;2023-03-14T10:28:30;9.45;;;3.15;;
71298;SDS011;59083;47.974;21.722;2023-03-14T10:31:50;10.55;;;3.45;;
71298;SDS011;59083;47.974;21.722;2023-03-14T10:35:04;7.80;;;3.20;;
71298;SDS011;59083;47.974;21.722;2023-03-14T10:38:12;19.75;;;3.80;;
71298;SDS011;59083;47.974;21.722;2023-03-14T10:44:24;7.93;;;2.90;;
71298;SDS011;59083;47.974;21.722;2023-03-14T10:47:27;11.27;;;2.90;;
71298;SDS011;59083;47.974;21.722;2023-03-14T10:50:31;11.67;;;3.00;;
71298;SDS011;59083;47.974;21.722;2023-03-14T10:53:44;11.93;;;3.33;;
71298;SDS011;59083;47.974;21.722;2023-03-14T10:56:59;12.77;;;2.92;;
71298;SDS011;59083;47.974;21.722;2023-03-14T11:00:02;11.93;;;3.03;;
71298;SDS011;59083;47.974;21.722;2023-03-14T11:03:11;6.97;;;2.90;;
71298;SDS011;59083;47.974;21.722;2023-03-14T11:09:56;9.80;;;2.90;;
71298;SDS011;59083;47.974;21.722;2023-03-14T11:36:53;11.12;;;3.25;;
71298;SDS011;59083;47.974;21.722;2023-03-14T11:43:20;9.15;;;2.83;;
71298;SDS011;59083;47.974;21.722;2023-03-14T11:46:45;11.93;;;3.62;;
71298;SDS011;59083;47.974;21.722;2023-03-14T11:53:26;8.17;;;3.03;;
71298;SDS011;59083;47.974;21.722;2023-03-14T11:56:47;8.73;;;2.80;;
71298;SDS011;59083;47.974;21.722;2023-03-14T12:03:13;10.65;;;3.22;;
71298;SDS011;59083;47.974;21.722;2023-03-14T12:06:24;6.97;;;3.08;;
71298;SDS011;59083;47.974;21.722;2023-03-14T12:09:32;14.07;;;2.93;;
71298;SDS011;59083;47.974;21.722;2023-03-14T12:12:35;8.50;;;3.20;;
71298;SDS011;59083;47.974;21.722;2023-03-14T12:15:40;9.52;;;3.12;;
71298;SDS011;59083;47.974;21.722;2023-03-14T12:18:49;8.55;;;3.20;;
71298;SDS011;59083;47.974;21.722;2023-03-14T12:25:28;12.70;;;5.07;;
71298;SDS011;59083;47.974;21.722;2023-03-14T12:28:30;7.80;;;3.17;;
71298;SDS011;59083;47.974;21.722;2023-03-14T12:31:35;7.28;;;3.10;;
71298;SDS011;59083;47.974;21.722;2023-03-14T12:34:39;9.43;;;3.08;;
71298;SDS011;59083;47.974;21.722;2023-03-14T12:37:42;6.78;;;2.90;;
71298;SDS011;59083;47.974;21.722;2023-03-14T12:44:10;6.93;;;2.80;;
71298;SDS011;59083;47.974;21.722;2023-03-14T12:57:19;8.77;;;3.15;;
71298;SDS011;59083;47.974;21.722;2023-03-14T13:00:29;18.10;;;3.37;;
71298;SDS011;59083;47.974;21.722;2023-03-14T13:03:37;6.70;;;2.62;;
71298;SDS011;59083;47.974;21.722;2023-03-14T13:07:01;8.13;;;2.85;;
71298;SDS011;59083;47.974;21.722;2023-03-14T13:16:27;8.47;;;3.03;;
71298;SDS011;59083;47.974;21.722;2023-03-14T13:19:29;8.00;;;2.87;;
71298;SDS011;59083;47.974;21.722;2023-03-14T13:22:34;7.93;;;2.90;;
71298;SDS011;59083;47.974;21.722;2023-03-14T13:25:37;9.55;;;2.80;;
71298;SDS011;59083;47.974;21.722;2023-03-14T13:28:39;6.83;;;2.77;;
71298;SDS011;59083;47.974;21.722;2023-03-14T13:31:43;7.60;;;2.80;;
71298;SDS011;59083;47.974;21.722;2023-03-14T13:34:46;9.00;;;2.70;;
71298;SDS011;59083;47.974;21.722;2023-03-14T13:37:59;7.37;;;2.85;;
71298;SDS011;59083;47.974;21.722;2023-03-14T13:41:05;8.27;;;2.83;;
71298;SDS011;59083;47.974;21.722;2023-03-14T13:44:09;10.07;;;3.10;;
71298;SDS011;59083;47.974;21.722;2023-03-14T13:47:17;7.03;;;2.80;;
71298;SDS011;59083;47.974;21.722;2023-03-14T13:50:20;9.50;;;3.35;;
71298;SDS011;59083;47.974;21.722;2023-03-14T13:53:22;12.57;;;3.20;;
71298;SDS011;59083;47.974;21.722;2023-03-14T13:56:25;10.20;;;2.83;;
71298;SDS011;59083;47.974;21.722;2023-03-14T13:59:32;11.82;;;3.22;;
71298;SDS011;59083;47.974;21.722;2023-03-14T14:02:35;10.20;;;3.10;;
71298;SDS011;59083;47.974;21.722;2023-03-14T14:05:39;7.50;;;2.80;;
71298;SDS011;59083;47.974;21.722;2023-03-14T14:08:42;11.88;;;3.17;;
71298;SDS011;59083;47.974;21.722;2023-03-14T14:11:48;8.27;;;2.70;;
71298;SDS011;59083;47.974;21.722;2023-03-14T14:14:58;9.90;;;2.70;;
71298;SDS011;59083;47.974;21.722;2023-03-14T14:18:05;7.73;;;3.20;;
71298;SDS011;59083;47.974;21.722;2023-03-14T14:21:11;7.43;;;2.60;;
71298;SDS011;59083;47.974;21.722;2023-03-14T14:24:14;10.40;;;3.10;;
71298;SDS011;59083;47.974;21.722;2023-03-14T14:27:38;7.30;;;2.83;;
71298;SDS011;59083;47.974;21.722;2023-03-14T14:30:40;9.83;;;2.90;;
71298;SDS011;59083;47.974;21.722;2023-03-14T14:33:42;12.13;;;2.70;;
71298;SDS011;59083;47.974;21.722;2023-03-14T14:36:45;9.55;;;3.70;;
71298;SDS011;59083;47.974;21.722;2023-03-14T14:39:50;7.93;;;3.10;;
71298;SDS011;59083;47.974;21.722;2023-03-14T14:42:54;9.18;;;3.65;;
71298;SDS011;59083;47.974;21.722;2023-03-14T14:45:56;11.15;;;3.53;;
71298;SDS011;59083;47.974;21.722;2023-03-14T14:49:02;7.93;;;3.30;;
71298;SDS011;59083;47.974;21.722;2023-03-14T14:52:14;6.68;;;2.90;;
71298;SDS011;59083;47.974;21.722;2023-03-14T14:55:18;13.88;;;3.58;;
71298;SDS011;59083;47.974;21.722;2023-03-14T15:01:33;7.95;;;2.85;;
71298;SDS011;59083;47.974;21.722;2023-03-14T15:04:40;12.43;;;3.00;;
71298;SDS011;59083;47.974;21.722;2023-03-14T15:07:42;8.77;;;2.75;;
71298;SDS011;59083;47.974;21.722;2023-03-14T15:10:43;11.70;;;2.80;;
71298;SDS011;59083;47.974;21.722;2023-03-14T15:13:44;11.02;;;2.95;;
71298;SDS011;59083;47.974;21.722;2023-03-14T15:16:45;7.85;;;3.17;;
71298;SDS011;59083;47.974;21.722;2023-03-14T15:19:47;17.17;;;3.07;;
71298;SDS011;59083;47.974;21.722;2023-03-14T15:22:48;9.70;;;3.15;;
71298;SDS011;59083;47.974;21.722;2023-03-14T15:25:49;9.07;;;3.20;;
71298;SDS011;59083;47.974;21.722;2023-03-14T15:28:50;8.65;;;3.20;;
71298;SDS011;59083;47.974;21.722;2023-03-14T15:31:52;7.10;;;3.22;;
71298;SDS011;59083;47.974;21.722;2023-03-14T15:34:56;10.97;;;3.23;;
71298;SDS011;59083;47.974;21.722;2023-03-14T15:37:57;7.87;;;3.33;;
71298;SDS011;59083;47.974;21.722;2023-03-14T15:40:58;8.70;;;3.00;;
71298;SDS011;59083;47.974;21.722;2023-03-14T15:44:00;8.90;;;3.30;;
71298;SDS011;59083;47.974;21.722;2023-03-14T15:47:01;11.10;;;2.90;;
71298;SDS011;59083;47.974;21.722;2023-03-14T15:50:03;12.73;;;3.10;;
71298;SDS011;59083;47.974;21.722;2023-03-14T15:53:04;11.27;;;3.90;;
71298;SDS011;59083;47.974;21.722;2023-03-14T15:56:06;10.93;;;3.50;;
71298;SDS011;59083;47.974;21.722;2023-03-14T15:59:11;9.00;;;3.42;;
71298;SDS011;59083;47.974;21.722;2023-03-14T16:02:12;9.50;;;3.07;;
71298;SDS011;59083;47.974;21.722;2023-03-14T16:05:14;8.30;;;3.43;;
71298;SDS011;59083;47.974;21.722;2023-03-14T16:08:15;9.70;;;4.05;;
71298;SDS011;59083;47.974;21.722;2023-03-14T16:11:17;7.10;;;3.05;;
71298;SDS011;59083;47.974;21.722;2023-03-14T16:14:18;7.93;;;3.20;;
71298;SDS011;59083;47.974;21.722;2023-03-14T16:17:19;11.88;;;3.50;;
71298;SDS011;59083;47.974;21.722;2023-03-14T16:20:21;7.40;;;3.60;;
71298;SDS011;59083;47.974;21.722;2023-03-14T16:23:23;10.82;;;4.07;;
71298;SDS011;59083;47.974;21.722;2023-03-14T16:26:25;10.13;;;3.92;;
71298;SDS011;59083;47.974;21.722;2023-03-14T16:29:26;7.82;;;3.67;;
71298;SDS011;59083;47.974;21.722;2023-03-14T16:32:27;10.88;;;4.80;;
71298;SDS011;59083;47.974;21.722;2023-03-14T16:35:29;12.23;;;5.87;;
71298;SDS011;59083;47.974;21.722;2023-03-14T16:38:30;13.52;;;4.10;;
71298;SDS011;59083;47.974;21.722;2023-03-14T16:41:33;12.57;;;3.95;;
71298;SDS011;59083;47.974;21.722;2023-03-14T16:44:34;7.55;;;3.78;;
71298;SDS011;59083;47.974;21.722;2023-03-14T16:47:36;13.03;;;4.10;;
71298;SDS011;59083;47.974;21.722;2023-03-14T16:50:38;9.57;;;3.80;;
71298;SDS011;59083;47.974;21.722;2023-03-14T16:53:40;9.85;;;3.70;;
71298;SDS011;59083;47.974;21.722;2023-03-14T16:56:42;8.10;;;4.20;;
71298;SDS011;59083;47.974;21.722;2023-03-14T16:59:45;8.68;;;4.15;;
71298;SDS011;59083;47.974;21.722;2023-03-14T17:02:46;9.13;;;3.40;;
71298;SDS011;59083;47.974;21.722;2023-03-14T17:05:48;14.03;;;5.70;;
71298;SDS011;59083;47.974;21.722;2023-03-14T17:08:51;8.93;;;3.70;;
71298;SDS011;59083;47.974;21.722;2023-03-14T17:11:54;10.55;;;3.83;;
71298;SDS011;59083;47.974;21.722;2023-03-14T17:14:55;10.70;;;4.07;;
71298;SDS011;59083;47.974;21.722;2023-03-14T17:17:57;8.35;;;4.20;;
71298;SDS011;59083;47.974;21.722;2023-03-14T17:20:58;10.93;;;4.30;;
71298;SDS011;59083;47.974;21.722;2023-03-14T17:24:00;8.00;;;3.92;;
71298;SDS011;59083;47.974;21.722;2023-03-14T17:27:01;11.63;;;4.78;;
71298;SDS011;59083;47.974;21.722;2023-03-14T17:30:03;9.60;;;4.28;;
71298;SDS011;59083;47.974;21.722;2023-03-14T17:33:05;12.57;;;5.40;;
71298;SDS011;59083;47.974;21.722;2023-03-14T17:36:06;11.77;;;4.43;;
71298;SDS011;59083;47.974;21.722;2023-03-14T17:39:08;10.63;;;4.18;;
71298;SDS011;59083;47.974;21.722;2023-03-14T17:42:09;11.25;;;4.50;;
71298;SDS011;59083;47.974;21.722;2023-03-14T17:45:10;9.30;;;4.40;;
71298;SDS011;59083;47.974;21.722;2023-03-14T17:48:12;16.33;;;5.22;;
71298;SDS011;59083;47.974;21.722;2023-03-14T17:51:13;11.93;;;4.77;;
71298;SDS011;59083;47.974;21.722;2023-03-14T17:54:16;8.30;;;4.15;;
71298;SDS011;59083;47.974;21.722;2023-03-14T17:57:17;9.40;;;3.95;;
71298;SDS011;59083;47.974;21.722;2023-03-14T18:00:18;9.55;;;4.07;;
71298;SDS011;59083;47.974;21.722;2023-03-14T18:03:20;14.25;;;5.22;;
71298;SDS011;59083;47.974;21.722;2023-03-14T18:06:22;11.03;;;4.40;;
71298;SDS011;59083;47.974;21.722;2023-03-14T18:09:23;12.73;;;5.30;;
71298;SDS011;59083;47.974;21.722;2023-03-14T18:12:24;9.25;;;4.10;;
71298;SDS011;59083;47.974;21.722;2023-03-14T18:15:27;9.43;;;3.90;;
71298;SDS011;59083;47.974;21.722;2023-03-14T18:18:28;9.32;;;3.87;;
71298;SDS011;59083;47.974;21.722;2023-03-14T18:21:30;9.50;;;3.37;;
71298;SDS011;59083;47.974;21.722;2023-03-14T18:24:31;8.32;;;3.67;;
71298;SDS011;59083;47.974;21.722;2023-03-14T18:27:32;9.20;;;3.58;;
71298;SDS011;59083;47.974;21.722;2023-03-14T18:30:34;9.13;;;3.75;;
71298;SDS011;59083;47.974;21.722;2023-03-14T18:33:35;7.95;;;3.60;;
71298;SDS011;59083;47.974;21.722;2023-03-14T18:36:41;7.83;;;4.10;;
71298;SDS011;59083;47.974;21.722;2023-03-14T18:39:42;9.02;;;3.90;;
71298;SDS011;59083;47.974;21.722;2023-03-14T18:42:43;12.35;;;6.05;;
71298;SDS011;59083;47.974;21.722;2023-03-14T18:45:44;16.85;;;10.15;;
71298;SDS011;59083;47.974;21.722;2023-03-14T18:48:46;26.50;;;15.00;;
71298;SDS011;59083;47.974;21.722;2023-03-14T18:51:47;23.83;;;14.43;;
71298;SDS011;59083;47.974;21.722;2023-03-14T18:54:48;22.17;;;13.20;;
71298;SDS011;59083;47.974;21.722;2023-03-14T18:57:50;22.20;;;9.27;;
71298;SDS011;59083;47.974;21.722;2023-03-14T19:00:56;12.35;;;6.85;;
71298;SDS011;59083;47.974;21.722;2023-03-14T19:04:00;11.38;;;5.00;;
71298;SDS011;59083;47.974;21.722;2023-03-14T19:07:02;7.93;;;3.83;;